createdAt,value
2023-03-07T00:01:45.788Z,33.15
2023-03-07T00:04:14.115Z,31.33
2023-03-07T00:06:43.043Z,29.95
2023-03-07T00:09:11.529Z,31.35
2023-03-07T00:11:40.361Z,30.17
2023-03-07T00:14:10.829Z,29.40
2023-03-07T00:16:40.250Z,30.55
2023-03-07T00:19:08.909Z,28.42
2023-03-07T00:21:38.114Z,28.50
2023-03-07T00:24:06.855Z,27.77
2023-03-07T00:26:40.047Z,27.83
2023-03-07T00:29:09.741Z,28.38
2023-03-07T00:31:40.144Z,29.67
2023-03-07T00:34:08.709Z,26.70
2023-03-07T00:36:37.485Z,26.73
2023-03-07T00:39:05.786Z,27.83
2023-03-07T00:41:35.091Z,28.17
2023-03-07T00:44:03.962Z,28.25
2023-03-07T00:46:33.236Z,27.30
2023-03-07T00:49:02.111Z,29.08
2023-03-07T00:51:31.254Z,29.05
2023-03-07T00:54:00.643Z,29.42
2023-03-07T00:56:29.573Z,29.40
2023-03-07T00:58:57.862Z,27.75
2023-03-07T01:01:26.896Z,29.20
2023-03-07T01:03:56.187Z,29.38
2023-03-07T01:06:31.715Z,31.42
2023-03-07T01:09:03.012Z,30.33
2023-03-07T01:11:32.705Z,31.17
2023-03-07T01:14:04.535Z,31.17
2023-03-07T01:16:37.675Z,31.13
2023-03-07T01:19:10.282Z,30.90
2023-03-07T01:21:42.186Z,31.95
2023-03-07T01:24:14.117Z,31.13
2023-03-07T01:26:43.566Z,32.85
2023-03-07T01:29:12.966Z,32.40
2023-03-07T01:31:42.541Z,34.38
2023-03-07T01:34:11.222Z,34.08
2023-03-07T01:36:41.162Z,34.25
2023-03-07T01:39:16.890Z,32.80
2023-03-07T01:41:56.827Z,33.38
2023-03-07T01:44:30.140Z,32.58
2023-03-07T01:47:00.722Z,32.33
2023-03-07T01:49:49.792Z,32.25
2023-03-07T01:52:24.334Z,31.85
2023-03-07T01:55:00.501Z,33.47
2023-03-07T01:57:36.136Z,32.83
2023-03-07T02:00:11.684Z,34.10
2023-03-07T02:03:10.499Z,34.42
2023-03-07T02:05:51.073Z,37.97
2023-03-07T02:08:24.297Z,36.38
2023-03-07T02:10:52.972Z,39.45
2023-03-07T02:13:21.937Z,41.65
2023-03-07T02:15:51.713Z,44.42
2023-03-07T02:18:25.985Z,43.88
2023-03-07T02:21:32.298Z,42.60
2023-03-07T02:24:11.901Z,43.35
2023-03-07T02:26:45.614Z,44.72
2023-03-07T02:29:14.861Z,44.85
2023-03-07T02:31:47.245Z,43.90
2023-03-07T02:34:30.587Z,48.08
2023-03-07T02:37:16.684Z,47.05
2023-03-07T02:39:47.967Z,45.20
2023-03-07T02:42:30.750Z,44.95
2023-03-07T02:45:10.819Z,40.50
2023-03-07T02:47:43.507Z,41.72
2023-03-07T02:50:16.265Z,43.45
2023-03-07T02:52:47.699Z,41.85
2023-03-07T02:55:17.008Z,47.58
2023-03-07T02:57:51.489Z,43.33
2023-03-07T03:00:20.755Z,41.70
2023-03-07T03:02:49.415Z,38.00
2023-03-07T03:05:18.752Z,38.70
2023-03-07T03:07:47.334Z,37.47
2023-03-07T03:10:17.415Z,35.22
2023-03-07T03:12:46.030Z,34.25
2023-03-07T03:15:15.470Z,33.42
2023-03-07T03:17:44.577Z,36.10
2023-03-07T03:20:13.814Z,31.00
2023-03-07T03:22:42.097Z,31.67
2023-03-07T03:25:14.613Z,30.83
2023-03-07T03:27:44.755Z,30.30
2023-03-07T03:30:14.417Z,29.00
2023-03-07T03:32:43.962Z,29.42
2023-03-07T03:35:16.279Z,27.95
2023-03-07T03:37:45.918Z,27.27
2023-03-07T03:40:14.949Z,25.90
2023-03-07T03:42:45.118Z,27.60
2023-03-07T03:45:15.573Z,25.75
2023-03-07T03:47:43.987Z,25.45
2023-03-07T03:50:12.935Z,25.10
2023-03-07T03:52:41.577Z,26.25
2023-03-07T03:55:11.390Z,26.02
2023-03-07T03:57:40.061Z,28.67
2023-03-07T04:00:09.452Z,26.48
2023-03-07T04:02:40.826Z,26.95
2023-03-07T04:05:15.364Z,26.77
2023-03-07T04:07:44.787Z,27.52
2023-03-07T04:10:13.947Z,26.33
2023-03-07T04:12:42.636Z,27.17
2023-03-07T04:15:12.718Z,26.85
2023-03-07T04:17:41.411Z,26.98
2023-03-07T04:20:17.791Z,26.23
2023-03-07T04:22:48.475Z,25.30
2023-03-07T04:25:17.515Z,24.85
2023-03-07T04:27:46.451Z,21.55
2023-03-07T04:30:15.353Z,22.50
2023-03-07T04:32:43.786Z,21.52
2023-03-07T04:35:13.001Z,20.20
2023-03-07T04:37:41.331Z,22.50
2023-03-07T04:40:10.801Z,21.35
2023-03-07T04:42:39.308Z,20.42
2023-03-07T04:45:08.875Z,15.88
2023-03-07T04:47:37.321Z,20.48
2023-03-07T04:50:09.258Z,21.23
2023-03-07T04:52:38.949Z,19.45
2023-03-07T04:55:08.144Z,20.23
2023-03-07T04:57:38.259Z,20.98
2023-03-07T05:00:12.105Z,20.50
2023-03-07T05:03:10.568Z,21.45
2023-03-07T05:05:44.158Z,21.70
2023-03-07T05:08:12.831Z,23.23
2023-03-07T05:10:42.365Z,30.13
2023-03-07T05:13:11.719Z,27.60
2023-03-07T05:15:42.253Z,22.52
2023-03-07T05:18:11.231Z,14.05
2023-03-07T05:20:43.332Z,18.00
2023-03-07T05:23:11.664Z,15.70
2023-03-07T05:26:05.752Z,16.95
2023-03-07T05:28:34.286Z,16.73
2023-03-07T05:31:03.203Z,15.80
2023-03-07T05:33:33.301Z,16.13
2023-03-07T05:36:02.637Z,16.38
2023-03-07T05:38:32.491Z,16.67
2023-03-07T05:41:01.560Z,16.90
2023-03-07T05:43:32.599Z,16.42
2023-03-07T05:46:01.745Z,15.25
2023-03-07T05:48:30.082Z,19.80
2023-03-07T05:51:01.741Z,20.77
2023-03-07T05:53:30.738Z,23.05
2023-03-07T05:55:59.434Z,23.27
2023-03-07T05:58:28.395Z,24.13
2023-03-07T06:01:03.856Z,22.65
2023-03-07T06:03:33.633Z,15.55
2023-03-07T06:06:04.174Z,20.27
2023-03-07T06:08:32.550Z,19.52
2023-03-07T06:11:01.668Z,18.35
2023-03-07T06:13:31.476Z,20.65
2023-03-07T06:16:00.280Z,20.38
2023-03-07T06:18:28.847Z,19.85
2023-03-07T06:21:02.828Z,18.48
2023-03-07T06:23:37.090Z,19.25
2023-03-07T06:26:12.553Z,19.60
2023-03-07T06:28:43.280Z,19.33
2023-03-07T06:31:17.034Z,20.55
2023-03-07T06:36:18.324Z,20.30
2023-03-07T06:38:50.067Z,21.13
2023-03-07T06:41:21.848Z,23.65
2023-03-07T06:43:53.125Z,23.60
2023-03-07T06:46:27.618Z,21.85
2023-03-07T06:48:57.217Z,21.55
2023-03-07T06:51:26.791Z,26.23
2023-03-07T06:53:58.237Z,24.65
2023-03-07T06:56:30.055Z,26.77
2023-03-07T07:01:28.195Z,25.80
2023-03-07T07:03:58.848Z,25.83
2023-03-07T07:06:31.430Z,25.17
2023-03-07T07:09:00.139Z,21.52
2023-03-07T07:11:33.876Z,23.10
2023-03-07T07:14:03.708Z,26.17
2023-03-07T07:16:34.022Z,25.15
2023-03-07T07:19:02.590Z,24.25
2023-03-07T07:21:31.625Z,25.55
2023-03-07T07:24:00.384Z,26.23
2023-03-07T07:26:29.805Z,24.45
2023-03-07T07:29:00.212Z,23.02
2023-03-07T07:31:29.455Z,25.05
2023-03-07T07:33:58.869Z,27.23
2023-03-07T07:36:30.592Z,29.02
2023-03-07T07:38:59.693Z,23.30
2023-03-07T07:41:29.155Z,26.08
2023-03-07T07:43:58.383Z,27.23
2023-03-07T07:46:33.808Z,25.55
2023-03-07T07:49:02.404Z,22.35
2023-03-07T07:51:31.293Z,25.80
2023-03-07T07:54:00.160Z,27.15
2023-03-07T07:56:29.466Z,26.92
2023-03-07T07:58:57.855Z,25.17
2023-03-07T08:01:26.981Z,26.60
2023-03-07T08:03:55.324Z,26.95
2023-03-07T08:06:27.288Z,28.70
2023-03-07T08:08:56.444Z,29.13
2023-03-07T08:11:25.512Z,31.52
2023-03-07T08:13:53.865Z,29.38
2023-03-07T08:16:23.466Z,30.58
2023-03-07T08:18:54.604Z,26.33
2023-03-07T08:21:25.238Z,26.85
2023-03-07T08:23:55.317Z,25.80
2023-03-07T08:26:25.187Z,23.83
2023-03-07T08:28:53.946Z,23.38
2023-03-07T08:31:24.598Z,25.48
2023-03-07T08:33:54.151Z,27.90
2023-03-07T08:36:23.085Z,28.13
2023-03-07T08:38:52.335Z,25.80
2023-03-07T08:41:23.083Z,27.42
2023-03-07T08:43:52.045Z,26.70
2023-03-07T08:46:21.102Z,29.20
2023-03-07T08:48:50.160Z,22.85
2023-03-07T08:51:18.834Z,27.75
2023-03-07T08:53:47.981Z,29.05
2023-03-07T08:56:19.178Z,26.80
2023-03-07T08:58:52.899Z,28.55
2023-03-07T09:01:21.981Z,23.23
2023-03-07T09:03:50.501Z,28.58
2023-03-07T09:06:25.640Z,29.17
2023-03-07T09:08:54.794Z,26.52
2023-03-07T09:11:23.634Z,28.90
2023-03-07T09:13:53.333Z,27.70
2023-03-07T09:16:22.796Z,26.88
2023-03-07T09:18:51.529Z,29.20
2023-03-07T09:21:20.555Z,26.25
2023-03-07T09:23:48.827Z,30.30
2023-03-07T09:26:17.532Z,26.55
2023-03-07T09:28:46.031Z,30.73
2023-03-07T09:31:16.177Z,33.05
2023-03-07T09:33:46.664Z,32.08
2023-03-07T09:36:16.678Z,33.50
2023-03-07T09:38:45.085Z,31.95
2023-03-07T09:41:58.908Z,28.33
2023-03-07T09:44:40.222Z,29.67
2023-03-07T09:48:11.770Z,27.60
2023-03-07T09:50:52.229Z,32.22
2023-03-07T09:53:38.028Z,32.63
2023-03-07T09:56:14.304Z,31.77
2023-03-07T09:58:47.908Z,28.13
2023-03-07T10:01:22.082Z,32.63
2023-03-07T10:04:03.657Z,31.58
2023-03-07T10:06:41.096Z,29.65
2023-03-07T10:09:18.780Z,30.65
2023-03-07T10:12:05.583Z,29.98
2023-03-07T10:14:58.539Z,28.65
2023-03-07T10:17:43.996Z,30.48
2023-03-07T10:20:31.484Z,25.77
2023-03-07T10:23:13.903Z,30.08
2023-03-07T10:25:59.561Z,29.35
2023-03-07T10:28:31.856Z,27.52
2023-03-07T10:31:22.533Z,26.77
2023-03-07T10:33:55.920Z,28.23
2023-03-07T10:36:43.070Z,28.95
2023-03-07T10:39:41.511Z,29.45
2023-03-07T10:42:13.620Z,26.90
2023-03-07T10:44:50.705Z,27.80
2023-03-07T10:47:27.077Z,27.65
2023-03-07T10:50:02.728Z,28.33
2023-03-07T10:52:43.504Z,28.05
2023-03-07T10:55:32.225Z,27.88
2023-03-07T10:58:34.750Z,24.85
2023-03-07T11:01:09.213Z,27.73
2023-03-07T11:03:53.619Z,28.48
2023-03-07T11:06:43.201Z,31.20
2023-03-07T11:37:12.845Z,22.48
2023-03-07T11:53:28.756Z,18.65
2023-03-07T11:57:05.656Z,20.27
2023-03-07T12:01:15.013Z,18.38
2023-03-07T12:04:22.710Z,12.23
2023-03-07T12:07:20.147Z,17.73
2023-03-07T12:10:27.341Z,11.73
2023-03-07T12:21:23.797Z,20.10
2023-03-07T12:24:15.057Z,11.30
2023-03-07T12:27:14.951Z,19.02
2023-03-07T12:30:26.646Z,13.73
2023-03-07T12:33:53.342Z,19.38
2023-03-07T12:36:53.059Z,15.30
2023-03-07T12:39:44.175Z,13.85
2023-03-07T12:42:40.652Z,15.57
2023-03-07T12:46:11.953Z,18.75
2023-03-07T12:58:14.214Z,15.45
2023-03-07T13:01:22.774Z,19.77
2023-03-07T13:04:10.622Z,18.45
2023-03-07T13:06:59.018Z,19.50
2023-03-07T13:09:32.637Z,19.77
2023-03-07T13:12:20.560Z,19.15
2023-03-07T13:15:32.284Z,19.65
2023-03-07T13:18:09.902Z,17.23
2023-03-07T13:20:46.205Z,18.52
2023-03-07T13:23:50.331Z,10.98
2023-03-07T13:26:24.641Z,18.83
2023-03-07T13:31:45.060Z,20.30
2023-03-07T13:34:56.464Z,15.80
2023-03-07T13:37:52.574Z,14.95
2023-03-07T13:40:52.709Z,18.10
2023-03-07T13:43:29.385Z,23.00
2023-03-07T13:46:29.426Z,21.77
2023-03-07T13:49:06.986Z,21.17
2023-03-07T13:51:36.170Z,20.15
2023-03-07T13:54:39.257Z,20.48
2023-03-07T13:57:20.903Z,19.42
2023-03-07T14:04:14.105Z,18.20
2023-03-07T14:07:01.382Z,19.73
2023-03-07T14:09:52.050Z,20.35
2023-03-07T14:12:59.415Z,21.52
2023-03-07T14:16:34.596Z,20.60
2023-03-07T14:20:35.384Z,20.52
2023-03-07T14:23:53.321Z,22.25
2023-03-07T14:31:26.244Z,19.35
2023-03-07T14:35:18.040Z,20.88
2023-03-07T14:39:08.379Z,20.10
2023-03-07T14:42:15.347Z,18.52
2023-03-07T15:00:23.980Z,18.50
2023-03-07T15:03:13.769Z,17.70
2023-03-07T15:06:01.388Z,20.70
2023-03-07T15:08:38.492Z,20.45
2023-03-07T15:11:13.566Z,18.95
2023-03-07T17:06:43.608Z,24.42
2023-03-07T17:09:14.899Z,22.85
2023-03-07T17:11:52.053Z,18.60
2023-03-07T17:14:27.482Z,22.40
2023-03-07T17:17:01.660Z,18.25
2023-03-07T17:19:32.844Z,18.65
2023-03-07T17:22:02.939Z,20.73
2023-03-07T17:24:32.020Z,10.77
2023-03-07T17:27:12.473Z,12.50
2023-03-07T17:29:48.150Z,10.85
2023-03-07T17:41:01.310Z,6.57
2023-03-07T17:43:54.764Z,7.05
2023-03-07T17:46:25.416Z,6.20
2023-03-07T17:48:53.994Z,5.32
2023-03-07T17:51:26.270Z,8.70
2023-03-07T17:53:56.928Z,6.72
2023-03-07T17:56:27.233Z,4.03
2023-03-07T17:58:55.861Z,7.80
2023-03-07T18:01:31.637Z,4.07
2023-03-07T18:04:03.533Z,6.28
2023-03-07T18:06:47.344Z,3.47
2023-03-07T18:09:18.992Z,2.40
2023-03-07T18:11:48.470Z,4.88
2023-03-07T18:14:17.817Z,3.35
2023-03-07T18:16:46.665Z,6.72
2023-03-07T18:19:25.551Z,3.85
2023-03-07T18:22:56.841Z,4.63
2023-03-07T18:25:41.713Z,4.32
2023-03-07T18:28:10.469Z,4.43
2023-03-07T18:30:39.704Z,2.53
2023-03-07T18:33:08.621Z,5.40
2023-03-07T18:35:38.082Z,7.72
2023-03-07T18:38:06.557Z,5.93
2023-03-07T18:50:08.044Z,4.82
2023-03-07T18:52:38.940Z,4.33
2023-03-07T19:05:14.019Z,4.53
2023-03-07T19:10:17.761Z,3.78
2023-03-07T19:12:55.660Z,5.35
2023-03-07T19:15:28.327Z,4.45
2023-03-07T19:18:27.217Z,4.40
2023-03-07T19:21:28.674Z,3.42
2023-03-07T19:24:03.375Z,4.93
2023-03-07T19:26:35.395Z,4.32
2023-03-07T19:29:05.564Z,3.75
2023-03-07T20:56:24.197Z,4.57
2023-03-07T20:59:03.055Z,6.40
2023-03-07T21:01:36.641Z,7.57
2023-03-07T21:04:13.799Z,7.47
2023-03-07T21:06:52.038Z,9.95
2023-03-07T21:09:37.168Z,9.43
2023-03-07T21:22:57.544Z,6.30
2023-03-07T21:25:51.165Z,6.22
2023-03-07T21:28:38.010Z,6.50
2023-03-07T21:31:35.100Z,5.63
2023-03-07T21:36:48.402Z,6.88
2023-03-07T21:39:25.938Z,5.97
2023-03-07T21:41:58.942Z,3.47
2023-03-07T21:44:31.474Z,6.22
2023-03-07T21:47:01.722Z,5.88
2023-03-07T21:49:34.110Z,4.75
2023-03-07T21:52:04.835Z,5.75
2023-03-07T21:54:35.689Z,3.72
2023-03-07T21:57:15.047Z,4.65
2023-03-07T21:59:50.328Z,6.50
2023-03-07T22:02:23.215Z,7.63
2023-03-07T22:04:54.943Z,8.18
2023-03-07T22:09:54.327Z,5.82
2023-03-07T22:12:24.528Z,7.18
2023-03-07T22:14:56.613Z,7.93
2023-03-07T22:17:37.878Z,6.60
2023-03-07T22:20:15.560Z,4.85
2023-03-07T22:22:52.283Z,6.70
2023-03-07T22:25:43.046Z,4.75
2023-03-07T22:28:23.916Z,7.32
2023-03-07T22:30:58.093Z,5.90
2023-03-07T22:33:39.300Z,7.28
2023-03-07T22:36:14.602Z,6.43
2023-03-07T22:38:45.281Z,6.63
2023-03-07T22:48:55.027Z,6.03
2023-03-07T22:51:39.730Z,6.90
2023-03-07T22:54:39.401Z,4.53
2023-03-07T22:57:13.910Z,6.00
2023-03-07T22:59:42.501Z,5.45
2023-03-07T23:02:19.810Z,7.57
2023-03-07T23:05:04.291Z,6.93
2023-03-07T23:07:42.103Z,5.30
2023-03-07T23:10:19.674Z,4.93
2023-03-07T23:13:05.580Z,9.60
2023-03-07T23:15:44.100Z,6.80
2023-03-07T23:18:28.862Z,6.68
2023-03-07T23:21:24.788Z,7.30
2023-03-07T23:23:58.849Z,5.68
2023-03-07T23:26:44.948Z,5.57
2023-03-07T23:29:16.428Z,5.88
2023-03-07T23:31:49.551Z,6.50
2023-03-07T23:34:21.214Z,7.00
2023-03-07T23:37:00.478Z,6.13
2023-03-07T23:39:30.605Z,5.53
2023-03-07T23:42:38.324Z,8.02
2023-03-07T23:45:26.807Z,5.55
2023-03-07T23:47:55.357Z,5.97
2023-03-07T23:50:24.855Z,6.35
2023-03-07T23:53:02.443Z,5.80
2023-03-07T23:56:22.413Z,4.88
2023-03-07T23:58:52.620Z,7.53
